Time;durP1;ratioP1;P1;durP2;ratioP2;P2;SDS_P1;SDS_P2;PMS_P1;PMS_P2;Temp;Humidity;BMP_temperature;BMP_pressure;BME280_temperature;BME280_humidity;BME280_pressure;Samples;Min_cycle;Max_cycle;Signal;HPM_P1;HPM_P2
2023/04/19 00:00:37;;;;;;;;;;;10.10;71.20;;;;;;5048985;28;20473;-76
2023/04/19 00:03:03;;;;;;;;;;;10.10;71.30;;;;;;5065927;28;19924;-76
2023/04/19 00:05:28;;;;;;;;;;;10.10;71.20;;;;;;5051323;28;19946;-78
2023/04/19 00:07:54;;;;;;;;;;;10.10;71.20;;;;;;5051376;28;19959;-76
2023/04/19 00:10:19;;;;;;;;;;;10.00;71.20;;;;;;5035222;28;19944;-76
2023/04/19 00:12:45;;;;;;;;;;;10.00;71.20;;;;;;5048917;28;19921;-77
2023/04/19 00:15:10;;;;;;;;;;;10.00;71.20;;;;;;5060659;28;19925;-76
2023/04/19 00:17:36;;;;;;;;;;;10.00;71.30;;;;;;5067121;28;20015;-77
2023/04/19 00:20:02;;;;;;;;;;;10.00;71.20;;;;;;5033512;28;19947;-77
2023/04/19 00:22:27;;;;;;;;;;;10.00;71.30;;;;;;5034302;28;20386;-77
2023/04/19 00:24:53;;;;;;;;;;;10.00;71.30;;;;;;5049199;28;19924;-76
2023/04/19 00:27:18;;;;;;;;;;;10.00;71.30;;;;;;5035748;28;19944;-77
2023/04/19 00:29:44;;;;;;;;;;;10.00;71.30;;;;;;5052707;28;19921;-76
2023/04/19 00:32:10;;;;;;;;;;;10.00;71.50;;;;;;5049306;28;20649;-77
2023/04/19 00:34:35;;;;;;;;;;;10.00;71.30;;;;;;5066411;28;19920;-77
2023/04/19 00:37:03;;;;;;;;;;;9.90;71.30;;;;;;5050800;28;19982;-76
2023/04/19 00:39:28;;;;;;;;;;;10.00;71.30;;;;;;5051849;28;19960;-78
2023/04/19 00:41:56;;;;;;;;;;;10.00;71.30;;;;;;5062232;28;19966;-76
2023/04/19 00:44:21;;;;;;;;;;;10.00;71.30;;;;;;5035184;28;19920;-77
2023/04/19 00:46:47;;;;;;;;;;;10.00;71.40;;;;;;5045961;28;19916;-77
2023/04/19 00:49:12;;;;;;;;;;;9.90;71.40;;;;;;5036934;28;21429;-76
2023/04/19 00:51:38;;;;;;;;;;;9.90;71.40;;;;;;5064658;28;19931;-77
2023/04/19 00:54:03;;;;;;;;;;;9.90;71.40;;;;;;5034808;28;20006;-77
2023/04/19 00:56:29;;;;;;;;;;;9.90;71.40;;;;;;5036771;28;19924;-76
2023/04/19 00:58:55;;;;;;;;;;;9.90;71.40;;;;;;5066942;28;19924;-77
2023/04/19 01:01:21;;;;;;;;;;;9.90;71.40;;;;;;5035997;28;20341;-78
2023/04/19 01:03:46;;;;;;;;;;;9.90;71.40;;;;;;5066047;28;19928;-78
2023/04/19 01:06:12;;;;;;;;;;;9.90;71.50;;;;;;5033667;28;19916;-76
2023/04/19 01:08:38;;;;;;;;;;;9.90;71.40;;;;;;5062270;28;19920;-76
2023/04/19 01:11:04;;;;;;;;;;;9.90;71.50;;;;;;5035220;28;19959;-76
2023/04/19 01:13:30;;;;;;;;;;;9.90;71.50;;;;;;5044389;28;19962;-77
2023/04/19 01:15:55;;;;;;;;;;;9.80;71.50;;;;;;5045867;28;19935;-77
2023/04/19 01:18:23;;;;;;;;;;;9.90;71.60;;;;;;5060368;28;19928;-77
2023/04/19 01:20:48;;;;;;;;;;;9.80;71.50;;;;;;5033132;28;19921;-78
2023/04/19 01:23:14;;;;;;;;;;;9.80;71.50;;;;;;5049558;28;20406;-77
2023/04/19 01:25:39;;;;;;;;;;;9.90;71.60;;;;;;5050820;28;19993;-78
2023/04/19 01:28:05;;;;;;;;;;;9.90;71.60;;;;;;5036398;28;19921;-77
2023/04/19 01:30:31;;;;;;;;;;;9.90;71.60;;;;;;5062638;28;19967;-76
2023/04/19 01:32:56;;;;;;;;;;;9.80;71.60;;;;;;5046887;28;20360;-76
2023/04/19 01:35:21;;;;;;;;;;;9.80;71.50;;;;;;5049628;28;19950;-78
2023/04/19 01:37:47;;;;;;;;;;;9.80;71.60;;;;;;5062368;28;19925;-77
2023/04/19 01:40:12;;;;;;;;;;;9.80;71.60;;;;;;5054678;28;19929;-77
2023/04/19 01:42:38;;;;;;;;;;;9.80;71.60;;;;;;5049799;28;19972;-77
2023/04/19 01:45:04;;;;;;;;;;;9.80;71.60;;;;;;5033169;28;19974;-78
2023/04/19 01:47:29;;;;;;;;;;;9.80;71.60;;;;;;5046560;28;19925;-77
2023/04/19 01:49:55;;;;;;;;;;;9.80;71.60;;;;;;5035070;28;20020;-78
2023/04/19 01:52:20;;;;;;;;;;;9.80;71.60;;;;;;5049152;28;20542;-76
2023/04/19 01:54:45;;;;;;;;;;;9.80;71.60;;;;;;5048989;28;20028;-77
2023/04/19 01:57:11;;;;;;;;;;;9.80;71.60;;;;;;5050534;28;19921;-77
2023/04/19 01:59:37;;;;;;;;;;;9.80;71.70;;;;;;5051340;28;19921;-78
2023/04/19 02:02:05;;;;;;;;;;;9.80;71.70;;;;;;5035480;28;20649;-78
2023/04/19 02:04:30;;;;;;;;;;;9.80;71.70;;;;;;5051540;28;19920;-75
2023/04/19 02:06:56;;;;;;;;;;;9.70;71.70;;;;;;5064919;28;19921;-77
2023/04/19 02:09:21;;;;;;;;;;;9.70;71.70;;;;;;5032246;28;19935;-77
2023/04/19 02:11:47;;;;;;;;;;;9.70;71.70;;;;;;5047746;28;20436;-77
2023/04/19 02:14:12;;;;;;;;;;;9.70;71.80;;;;;;5047549;28;19920;-77
2023/04/19 02:16:37;;;;;;;;;;;9.70;71.80;;;;;;5047453;28;20699;-77
2023/04/19 02:19:03;;;;;;;;;;;9.70;71.80;;;;;;5030385;28;19925;-77
2023/04/19 02:21:29;;;;;;;;;;;9.70;71.80;;;;;;5035652;28;19928;-77
2023/04/19 02:23:54;;;;;;;;;;;9.70;71.90;;;;;;5064087;28;19924;-77
2023/04/19 02:26:20;;;;;;;;;;;9.70;71.90;;;;;;5052099;28;19920;-77
2023/04/19 02:28:45;;;;;;;;;;;9.70;71.90;;;;;;5046934;28;19920;-77
2023/04/19 02:31:11;;;;;;;;;;;9.70;71.90;;;;;;5060357;28;20588;-78
2023/04/19 02:33:36;;;;;;;;;;;9.70;71.90;;;;;;5062984;28;19928;-77
2023/04/19 02:36:02;;;;;;;;;;;9.70;71.90;;;;;;5034634;28;19930;-77
2023/04/19 02:38:28;;;;;;;;;;;9.70;71.90;;;;;;5051679;28;20437;-77
2023/04/19 02:40:53;;;;;;;;;;;9.70;71.90;;;;;;5034659;28;19982;-76
2023/04/19 02:43:19;;;;;;;;;;;9.70;71.90;;;;;;5048186;28;20775;-77
2023/04/19 02:45:44;;;;;;;;;;;9.70;72.00;;;;;;5045420;28;19971;-77
2023/04/19 02:48:10;;;;;;;;;;;9.70;71.90;;;;;;5035751;28;19921;-77
2023/04/19 02:50:35;;;;;;;;;;;9.70;72.80;;;;;;5051675;28;20438;-76
2023/04/19 02:53:01;;;;;;;;;;;9.70;71.90;;;;;;5050173;28;19928;-77
2023/04/19 02:55:26;;;;;;;;;;;9.70;72.00;;;;;;5049974;28;20302;-76
2023/04/19 02:57:52;;;;;;;;;;;9.70;72.00;;;;;;5066371;28;19931;-77
2023/04/19 03:00:17;;;;;;;;;;;9.70;71.90;;;;;;5024000;28;19996;-76
2023/04/19 03:02:43;;;;;;;;;;;9.70;72.00;;;;;;5067685;28;19921;-76
2023/04/19 03:05:09;;;;;;;;;;;9.70;72.00;;;;;;5020997;28;20102;-77
2023/04/19 03:07:35;;;;;;;;;;;9.60;72.00;;;;;;5064901;28;19936;-76
2023/04/19 03:10:00;;;;;;;;;;;9.70;72.00;;;;;;5037285;28;19920;-78
2023/04/19 03:12:26;;;;;;;;;;;9.70;72.00;;;;;;5039336;28;19960;-77
2023/04/19 03:14:51;;;;;;;;;;;9.70;72.00;;;;;;5066212;28;19921;-77
2023/04/19 03:17:17;;;;;;;;;;;9.70;72.00;;;;;;5049808;28;19921;-78
2023/04/19 03:19:42;;;;;;;;;;;9.70;72.00;;;;;;5048487;28;20453;-77
2023/04/19 03:22:08;;;;;;;;;;;9.70;72.00;;;;;;5021170;28;20811;-77
2023/04/19 03:24:33;;;;;;;;;;;9.70;72.00;;;;;;5053153;28;19924;-77
2023/04/19 03:26:58;;;;;;;;;;;9.70;72.00;;;;;;5040933;28;19925;-75
2023/04/19 03:29:24;;;;;;;;;;;9.70;72.00;;;;;;5037206;28;19970;-76
2023/04/19 03:31:49;;;;;;;;;;;9.70;72.00;;;;;;5050478;28;19950;-77
2023/04/19 03:34:15;;;;;;;;;;;9.70;72.00;;;;;;5067497;28;19920;-78
2023/04/19 03:36:40;;;;;;;;;;;9.70;72.80;;;;;;5047923;28;19928;-78
2023/04/19 03:39:06;;;;;;;;;;;9.70;72.10;;;;;;5051744;28;19954;-77
2023/04/19 03:41:31;;;;;;;;;;;9.70;72.20;;;;;;5066681;28;19942;-77
2023/04/19 03:43:57;;;;;;;;;;;9.70;72.10;;;;;;5052638;28;19920;-77
2023/04/19 03:46:23;;;;;;;;;;;9.70;72.20;;;;;;5051460;28;20371;-77
2023/04/19 03:48:48;;;;;;;;;;;9.70;72.10;;;;;;5041230;28;19928;-77
2023/04/19 03:51:14;;;;;;;;;;;9.70;72.20;;;;;;5034773;28;19928;-77
2023/04/19 03:53:40;;;;;;;;;;;9.70;72.20;;;;;;5020493;28;19921;-77
2023/04/19 03:56:05;;;;;;;;;;;9.70;72.20;;;;;;5040362;28;19925;-77
2023/04/19 03:58:31;;;;;;;;;;;9.60;72.10;;;;;;5038208;28;19925;-77
2023/04/19 04:00:57;;;;;;;;;;;9.60;72.10;;;;;;5067978;28;20000;-78
2023/04/19 04:03:22;;;;;;;;;;;9.70;72.20;;;;;;5068119;28;19946;-76
2023/04/19 04:05:48;;;;;;;;;;;9.70;72.20;;;;;;5050350;28;19929;-77
2023/04/19 04:08:13;;;;;;;;;;;9.70;72.20;;;;;;5065913;28;19936;-77
2023/04/19 04:10:39;;;;;;;;;;;9.70;72.30;;;;;;5050552;28;19920;-77
2023/04/19 04:13:04;;;;;;;;;;;9.60;72.20;;;;;;5040007;28;19926;-78
2023/04/19 04:15:30;;;;;;;;;;;9.70;72.30;;;;;;5058079;28;19964;-77
2023/04/19 04:17:55;;;;;;;;;;;9.70;72.40;;;;;;5048604;28;20021;-78
2023/04/19 04:20:24;;;;;;;;;;;9.60;72.30;;;;;;5063550;28;19958;-77
2023/04/19 04:22:49;;;;;;;;;;;9.60;72.30;;;;;;5038398;28;20534;-76
2023/04/19 04:25:14;;;;;;;;;;;9.60;72.30;;;;;;5067619;28;19927;-77
2023/04/19 04:27:43;;;;;;;;;;;9.70;72.40;;;;;;5035575;28;20080;-77
2023/04/19 04:30:09;;;;;;;;;;;9.60;72.30;;;;;;5035430;28;19924;-78
2023/04/19 04:32:34;;;;;;;;;;;9.70;72.40;;;;;;5033220;28;19920;-76
2023/04/19 04:35:03;;;;;;;;;;;9.60;72.30;;;;;;5050244;28;19932;-78
2023/04/19 04:37:30;;;;;;;;;;;9.70;72.40;;;;;;5030104;28;19920;-77
2023/04/19 04:39:55;;;;;;;;;;;9.70;72.40;;;;;;5065073;28;19939;-78
2023/04/19 04:42:20;;;;;;;;;;;9.70;72.40;;;;;;5038286;28;19921;-78
2023/04/19 04:44:46;;;;;;;;;;;9.70;73.30;;;;;;5054405;28;19921;-77
2023/04/19 04:47:12;;;;;;;;;;;9.60;72.40;;;;;;5051209;28;19944;-78
2023/04/19 04:49:37;;;;;;;;;;;9.60;72.40;;;;;;5050360;28;19932;-76
2023/04/19 04:52:03;;;;;;;;;;;9.60;72.50;;;;;;5051863;28;20334;-78
2023/04/19 04:54:28;;;;;;;;;;;9.60;72.40;;;;;;5050841;28;19971;-77
2023/04/19 04:56:54;;;;;;;;;;;9.60;72.40;;;;;;5052309;28;19935;-78
2023/04/19 04:59:19;;;;;;;;;;;9.60;72.50;;;;;;5038640;28;19925;-77
2023/04/19 05:01:45;;;;;;;;;;;9.60;72.40;;;;;;5051603;28;19920;-77
2023/04/19 05:04:10;;;;;;;;;;;9.60;72.40;;;;;;5035397;28;19921;-78
2023/04/19 05:06:35;;;;;;;;;;;9.70;72.50;;;;;;5037860;28;19997;-77
2023/04/19 05:09:01;;;;;;;;;;;9.70;72.50;;;;;;5034786;28;19924;-77
2023/04/19 05:11:26;;;;;;;;;;;9.70;72.60;;;;;;5033894;28;19924;-77
2023/04/19 05:13:52;;;;;;;;;;;9.70;72.50;;;;;;5038320;28;20016;-76
2023/04/19 05:16:18;;;;;;;;;;;9.70;72.50;;;;;;5052336;28;19924;-77
2023/04/19 05:18:44;;;;;;;;;;;9.70;72.50;;;;;;5049695;28;19920;-77
2023/04/19 05:21:09;;;;;;;;;;;9.70;72.50;;;;;;5062201;28;19931;-76
2023/04/19 05:23:36;;;;;;;;;;;9.70;72.50;;;;;;5025954;28;19920;-78
2023/04/19 05:26:01;;;;;;;;;;;9.80;72.60;;;;;;5022729;28;20429;-77
2023/04/19 05:28:27;;;;;;;;;;;9.70;72.50;;;;;;5049883;28;19995;-77
2023/04/19 05:30:52;;;;;;;;;;;9.70;72.50;;;;;;5031248;28;19925;-77
2023/04/19 05:33:18;;;;;;;;;;;9.80;72.60;;;;;;5020283;28;20473;-77
2023/04/19 05:35:43;;;;;;;;;;;9.80;72.50;;;;;;5034613;28;19932;-77
2023/04/19 05:38:08;;;;;;;;;;;9.80;72.50;;;;;;5050385;28;20482;-76
2023/04/19 05:40:34;;;;;;;;;;;9.80;72.60;;;;;;5054355;28;20562;-75
2023/04/19 05:43:00;;;;;;;;;;;9.80;72.50;;;;;;5023454;28;19932;-78
2023/04/19 05:45:25;;;;;;;;;;;9.80;72.60;;;;;;5067918;28;20315;-77
2023/04/19 05:47:51;;;;;;;;;;;9.80;72.50;;;;;;5051292;28;19920;-76
2023/04/19 05:50:19;;;;;;;;;;;9.90;72.60;;;;;;5036882;28;20038;-78
2023/04/19 05:52:45;;;;;;;;;;;9.90;72.50;;;;;;5050940;28;19925;-75
2023/04/19 05:55:10;;;;;;;;;;;9.90;72.60;;;;;;5059877;28;20352;-78
2023/04/19 05:57:36;;;;;;;;;;;9.90;72.50;;;;;;5049562;28;19951;-77
2023/04/19 06:00:01;;;;;;;;;;;9.90;72.50;;;;;;5034188;28;19929;-77
2023/04/19 06:02:27;;;;;;;;;;;9.90;72.50;;;;;;5036172;28;19921;-77
2023/04/19 06:04:52;;;;;;;;;;;10.00;72.60;;;;;;5047723;28;20014;-77
2023/04/19 06:07:18;;;;;;;;;;;10.00;72.50;;;;;;5053281;28;20441;-78
2023/04/19 06:09:43;;;;;;;;;;;10.00;72.50;;;;;;5033876;28;19974;-77
2023/04/19 06:12:09;;;;;;;;;;;10.00;72.40;;;;;;5038364;28;19924;-77
2023/04/19 06:14:34;;;;;;;;;;;10.00;72.50;;;;;;5053430;28;20374;-76
2023/04/19 06:17:00;;;;;;;;;;;10.00;72.50;;;;;;5051040;28;19978;-77
2023/04/19 06:19:26;;;;;;;;;;;10.00;72.40;;;;;;5065024;28;19971;-77
2023/04/19 06:21:51;;;;;;;;;;;10.10;72.50;;;;;;5030316;28;19920;-77
2023/04/19 06:24:16;;;;;;;;;;;10.10;72.50;;;;;;5042966;28;20410;-76
2023/04/19 06:26:42;;;;;;;;;;;10.10;72.50;;;;;;5050434;28;19928;-77
2023/04/19 06:29:07;;;;;;;;;;;10.10;72.50;;;;;;5068975;28;20655;-77
2023/04/19 06:31:33;;;;;;;;;;;10.10;72.40;;;;;;5052340;28;19955;-78
2023/04/19 06:33:59;;;;;;;;;;;10.10;72.50;;;;;;5055425;28;19920;-77
2023/04/19 06:36:25;;;;;;;;;;;10.10;72.50;;;;;;5052845;28;20007;-77
2023/04/19 06:38:51;;;;;;;;;;;10.10;72.40;;;;;;5067485;28;19981;-77
2023/04/19 06:41:16;;;;;;;;;;;10.10;72.40;;;;;;5053846;28;19921;-76
2023/04/19 06:43:43;;;;;;;;;;;10.10;72.50;;;;;;5067338;28;19989;-77
2023/04/19 06:46:09;;;;;;;;;;;10.20;72.50;;;;;;5028521;28;21505;-77
2023/04/19 06:48:34;;;;;;;;;;;10.10;72.40;;;;;;5073347;28;19950;-76
2023/04/19 06:51:00;;;;;;;;;;;10.20;72.50;;;;;;5052738;28;19924;-77
2023/04/19 06:53:28;;;;;;;;;;;10.20;72.50;;;;;;5069518;28;19955;-76
2023/04/19 06:55:57;;;;;;;;;;;10.20;72.50;;;;;;5067191;28;19935;-75
2023/04/19 06:58:22;;;;;;;;;;;10.20;72.50;;;;;;5071053;28;20456;-77
2023/04/19 07:00:48;;;;;;;;;;;10.20;72.40;;;;;;5034466;28;20446;-77
2023/04/19 07:03:13;;;;;;;;;;;10.20;72.50;;;;;;5055375;28;19921;-77
2023/04/19 07:05:39;;;;;;;;;;;10.20;72.40;;;;;;5069445;28;19924;-76
2023/04/19 07:08:04;;;;;;;;;;;10.20;72.40;;;;;;5025814;28;19924;-77
2023/04/19 07:10:30;;;;;;;;;;;10.30;72.40;;;;;;5052424;28;19925;-77
2023/04/19 07:12:55;;;;;;;;;;;10.30;72.40;;;;;;5071978;28;20351;-77
2023/04/19 07:15:21;;;;;;;;;;;10.30;72.30;;;;;;5057170;28;19925;-78
2023/04/19 07:17:46;;;;;;;;;;;10.30;72.30;;;;;;5038484;28;19982;-77
2023/04/19 07:20:12;;;;;;;;;;;10.30;72.30;;;;;;5042674;28;20469;-78
2023/04/19 07:22:37;;;;;;;;;;;10.40;72.40;;;;;;5063176;28;19929;-78
2023/04/19 07:25:03;;;;;;;;;;;10.40;72.40;;;;;;5056092;28;19974;-77
2023/04/19 07:27:28;;;;;;;;;;;10.40;72.30;;;;;;5067796;28;19924;-77
2023/04/19 07:29:54;;;;;;;;;;;10.40;72.30;;;;;;5068366;28;19928;-76
2023/04/19 07:32:19;;;;;;;;;;;10.50;72.30;;;;;;5054903;28;19927;-77
2023/04/19 07:34:45;;;;;;;;;;;10.50;72.20;;;;;;5068259;28;20395;-77
2023/04/19 07:37:11;;;;;;;;;;;10.50;72.20;;;;;;5053123;28;20411;-77
2023/04/19 07:39:37;;;;;;;;;;;10.60;72.20;;;;;;5070505;28;19932;-77
2023/04/19 07:42:02;;;;;;;;;;;10.60;72.20;;;;;;5053999;28;19916;-78
2023/04/19 07:44:27;;;;;;;;;;;10.60;72.10;;;;;;5059644;28;19977;-76
2023/04/19 07:46:53;;;;;;;;;;;10.70;72.10;;;;;;5069651;28;20354;-76
2023/04/19 07:49:18;;;;;;;;;;;10.70;72.00;;;;;;5051445;28;19920;-78
2023/04/19 07:51:44;;;;;;;;;;;10.80;72.00;;;;;;5036968;28;19920;-77
2023/04/19 07:54:10;;;;;;;;;;;10.80;71.90;;;;;;5071899;28;20526;-77
2023/04/19 07:56:35;;;;;;;;;;;10.90;71.90;;;;;;5052609;28;20525;-77
2023/04/19 07:59:01;;;;;;;;;;;10.90;71.90;;;;;;5036185;28;19974;-77
2023/04/19 08:01:27;;;;;;;;;;;10.90;71.80;;;;;;5036225;28;19924;-77
2023/04/19 08:03:53;;;;;;;;;;;11.00;71.80;;;;;;5055296;28;19931;-78
2023/04/19 08:06:20;;;;;;;;;;;11.00;71.70;;;;;;5042087;28;19920;-75
2023/04/19 08:08:46;;;;;;;;;;;11.10;71.70;;;;;;5053947;28;20553;-77
2023/04/19 08:11:11;;;;;;;;;;;11.10;71.70;;;;;;5066709;28;19921;-77
2023/04/19 08:13:37;;;;;;;;;;;11.20;71.60;;;;;;5054117;28;19945;-77
2023/04/19 08:16:02;;;;;;;;;;;11.30;71.60;;;;;;5051696;28;19924;-77
2023/04/19 08:18:28;;;;;;;;;;;11.40;71.60;;;;;;5068590;28;20672;-78
2023/04/19 08:20:54;;;;;;;;;;;11.40;71.50;;;;;;5034662;28;19940;-76
2023/04/19 08:23:20;;;;;;;;;;;11.50;71.40;;;;;;5063743;28;19921;-75
2023/04/19 08:25:45;;;;;;;;;;;11.60;71.40;;;;;;5066319;28;20560;-77
2023/04/19 08:28:11;;;;;;;;;;;11.70;71.30;;;;;;5054141;28;19924;-78
2023/04/19 08:30:36;;;;;;;;;;;11.70;71.20;;;;;;5066592;28;19970;-78
2023/04/19 08:33:02;;;;;;;;;;;11.80;71.20;;;;;;5039346;28;20469;-76
2023/04/19 08:35:27;;;;;;;;;;;11.90;71.10;;;;;;5071433;28;19928;-77
2023/04/19 08:37:53;;;;;;;;;;;11.90;71.00;;;;;;5056554;28;20378;-76
2023/04/19 08:40:18;;;;;;;;;;;12.00;71.00;;;;;;5052538;28;20039;-78
2023/04/19 08:42:44;;;;;;;;;;;12.00;70.90;;;;;;5064536;28;19920;-78
2023/04/19 08:45:12;;;;;;;;;;;12.10;70.90;;;;;;5037038;28;19928;-77
2023/04/19 08:47:39;;;;;;;;;;;12.10;70.80;;;;;;5065762;28;19948;-77
2023/04/19 08:50:05;;;;;;;;;;;12.20;70.80;;;;;;5052305;28;19931;-78
2023/04/19 08:52:34;;;;;;;;;;;12.30;70.70;;;;;;5063211;28;19925;-77
2023/04/19 08:55:03;;;;;;;;;;;12.30;70.60;;;;;;5068458;28;19927;-77
2023/04/19 08:57:31;;;;;;;;;;;12.30;70.60;;;;;;5064953;28;19920;-78
2023/04/19 08:59:57;;;;;;;;;;;12.40;70.50;;;;;;5066314;28;19946;-76
2023/04/19 09:02:23;;;;;;;;;;;12.40;70.40;;;;;;5050426;28;19934;-77
2023/04/19 09:04:48;;;;;;;;;;;12.40;70.30;;;;;;5038156;28;19920;-76
2023/04/19 09:07:23;;;;;;;;;;;12.40;70.30;;;;;;5036838;28;19921;-77
2023/04/19 09:10:02;;;;;;;;;;;12.40;70.30;;;;;;5065483;28;19999;-78
2023/04/19 09:12:28;;;;;;;;;;;12.40;70.40;;;;;;5051711;28;20015;-78
2023/04/19 09:14:53;;;;;;;;;;;12.40;70.20;;;;;;5051602;28;20053;-77
2023/04/19 09:17:19;;;;;;;;;;;12.40;70.30;;;;;;5029847;28;20308;-78
2023/04/19 09:19:45;;;;;;;;;;;12.40;70.20;;;;;;5034225;28;19920;-77
2023/04/19 09:22:11;;;;;;;;;;;12.40;70.20;;;;;;5066981;28;19924;-77
2023/04/19 09:24:37;;;;;;;;;;;12.40;70.20;;;;;;5062404;28;19950;-78
2023/04/19 09:27:03;;;;;;;;;;;12.40;70.20;;;;;;5037567;28;20457;-77
2023/04/19 09:29:29;;;;;;;;;;;12.40;70.30;;;;;;5052014;28;19927;-77
2023/04/19 09:31:55;;;;;;;;;;;12.40;70.30;;;;;;5052727;28;20039;-77
2023/04/19 09:34:22;;;;;;;;;;;12.40;70.30;;;;;;5036185;28;19925;-77
2023/04/19 09:36:48;;;;;;;;;;;12.40;70.20;;;;;;5053962;28;19927;-78
2023/04/19 09:39:16;;;;;;;;;;;12.40;70.20;;;;;;5052472;28;19935;-76
2023/04/19 09:41:52;;;;;;;;;;;12.50;70.30;;;;;;5065982;28;19924;-78
2023/04/19 09:44:17;;;;;;;;;;;12.50;70.20;;;;;;5032986;28;19920;-78
2023/04/19 09:46:44;;;;;;;;;;;12.60;70.20;;;;;;5067372;28;19921;-78
2023/04/19 09:49:13;;;;;;;;;;;12.60;70.20;;;;;;5069632;28;19924;-75
2023/04/19 09:51:39;;;;;;;;;;;12.70;70.10;;;;;;5055321;28;19920;-77
2023/04/19 09:54:04;;;;;;;;;;;12.70;70.00;;;;;;5051612;28;19926;-77
2023/04/19 09:56:30;;;;;;;;;;;12.80;70.00;;;;;;5064786;28;19990;-78
2023/04/19 09:58:55;;;;;;;;;;;12.90;69.90;;;;;;5067220;28;20011;-77
2023/04/19 10:01:21;;;;;;;;;;;13.00;69.80;;;;;;5048925;28;20379;-78
2023/04/19 10:03:47;;;;;;;;;;;13.20;69.70;;;;;;5062680;28;19966;-76
2023/04/19 10:06:17;;;;;;;;;;;13.30;69.50;;;;;;5039889;28;20321;-76
2023/04/19 10:08:44;;;;;;;;;;;13.40;69.30;;;;;;5065863;28;19927;-78
2023/04/19 10:11:09;;;;;;;;;;;13.40;69.30;;;;;;5040157;28;19925;-76
2023/04/19 10:13:35;;;;;;;;;;;13.50;69.20;;;;;;5067512;28;19928;-78
2023/04/19 10:16:02;;;;;;;;;;;13.70;69.20;;;;;;5040489;28;20455;-77
2023/04/19 10:18:27;;;;;;;;;;;13.90;69.10;;;;;;5053435;28;19982;-78
2023/04/19 10:20:54;;;;;;;;;;;14.10;68.80;;;;;;5040952;28;19932;-74
2023/04/19 10:23:20;;;;;;;;;;;14.30;68.70;;;;;;5024841;28;19921;-78
2023/04/19 10:25:46;;;;;;;;;;;14.60;68.70;;;;;;5064761;28;19928;-76
2023/04/19 10:28:12;;;;;;;;;;;14.80;68.40;;;;;;5055163;28;19977;-78
2023/04/19 10:30:37;;;;;;;;;;;15.00;68.10;;;;;;5040764;28;19927;-78
2023/04/19 10:33:03;;;;;;;;;;;15.30;67.80;;;;;;5025844;28;20402;-78
2023/04/19 10:35:36;;;;;;;;;;;15.50;67.60;;;;;;5038030;28;19947;-79
2023/04/19 10:38:05;;;;;;;;;;;15.60;67.40;;;;;;5071010;28;19927;-78
2023/04/19 10:40:49;;;;;;;;;;;15.60;67.20;;;;;;5068454;28;20052;-78
2023/04/19 10:43:16;;;;;;;;;;;15.70;67.10;;;;;;5043019;28;19921;-78
2023/04/19 10:45:42;;;;;;;;;;;15.70;67.00;;;;;;5070846;28;19920;-77
2023/04/19 10:48:14;;;;;;;;;;;15.70;66.90;;;;;;5051763;28;19920;-78
2023/04/19 10:50:56;;;;;;;;;;;15.70;66.90;;;;;;5070640;28;20541;-77
2023/04/19 10:53:40;;;;;;;;;;;15.80;66.90;;;;;;5040650;28;20016;-78
2023/04/19 10:56:05;;;;;;;;;;;15.80;66.90;;;;;;5048948;28;20403;-77
2023/04/19 10:58:31;;;;;;;;;;;15.70;66.80;;;;;;5056037;28;19924;-78
2023/04/19 11:01:19;;;;;;;;;;;15.80;67.00;;;;;;5066580;28;19966;-78
2023/04/19 11:03:45;;;;;;;;;;;15.80;66.90;;;;;;5045052;28;19940;-79
2023/04/19 11:06:15;;;;;;;;;;;16.00;67.10;;;;;;5054304;28;19994;-79
2023/04/19 11:08:42;;;;;;;;;;;16.20;66.90;;;;;;5065826;28;19926;-77
2023/04/19 11:11:07;;;;;;;;;;;16.40;66.60;;;;;;5041980;28;19925;-77
2023/04/19 11:13:33;;;;;;;;;;;16.60;66.30;;;;;;5066800;28;19927;-79
2023/04/19 11:15:59;;;;;;;;;;;16.70;66.10;;;;;;5067213;28;19925;-77
2023/04/19 11:18:28;;;;;;;;;;;16.90;66.00;;;;;;5052359;28;19920;-78
2023/04/19 11:20:54;;;;;;;;;;;17.10;65.70;;;;;;5050529;28;19977;-79
2023/04/19 11:23:19;;;;;;;;;;;17.30;65.50;;;;;;5051849;28;19920;-79
2023/04/19 11:25:45;;;;;;;;;;;17.50;65.20;;;;;;5048497;28;19920;-77
2023/04/19 11:28:10;;;;;;;;;;;17.60;64.90;;;;;;5050518;28;20014;-77
2023/04/19 11:30:36;;;;;;;;;;;17.70;64.80;;;;;;5065823;28;20347;-78
2023/04/19 11:33:01;;;;;;;;;;;17.80;64.60;;;;;;5037688;28;19952;-79
2023/04/19 11:35:27;;;;;;;;;;;17.90;64.50;;;;;;5065393;28;19925;-78
2023/04/19 11:37:53;;;;;;;;;;;17.90;64.50;;;;;;5067874;28;21433;-78
2023/04/19 11:40:19;;;;;;;;;;;18.10;64.40;;;;;;5029258;28;20015;-78
2023/04/19 11:42:44;;;;;;;;;;;18.30;64.30;;;;;;5030292;28;19947;-79
2023/04/19 11:45:10;;;;;;;;;;;18.50;64.10;;;;;;5034025;28;19921;-78
2023/04/19 11:47:48;;;;;;;;;;;18.70;63.90;;;;;;5027151;28;19921;-77
2023/04/19 11:50:29;;;;;;;;;;;18.80;63.40;;;;;;5031375;28;19921;-79
2023/04/19 11:52:54;;;;;;;;;;;19.00;63.30;;;;;;5029905;28;20552;-78
2023/04/19 11:55:20;;;;;;;;;;;19.20;63.00;;;;;;5035279;28;19921;-79
2023/04/19 11:57:45;;;;;;;;;;;19.30;62.70;;;;;;5046961;28;19944;-78
2023/04/19 12:00:11;;;;;;;;;;;19.40;62.70;;;;;;5033161;28;20330;-78
2023/04/19 12:02:40;;;;;;;;;;;19.50;62.40;;;;;;5029711;28;20012;-78
2023/04/19 12:05:09;;;;;;;;;;;19.50;62.30;;;;;;5026550;28;20307;-79
2023/04/19 12:07:35;;;;;;;;;;;19.60;62.40;;;;;;5029429;28;20006;-79
2023/04/19 12:10:09;;;;;;;;;;;19.70;62.50;;;;;;5031899;28;20387;-78
2023/04/19 12:12:34;;;;;;;;;;;19.80;62.30;;;;;;5029249;28;20339;-79
2023/04/19 12:15:00;;;;;;;;;;;19.90;62.10;;;;;;5034083;28;19920;-78
2023/04/19 12:17:25;;;;;;;;;;;20.10;62.10;;;;;;5033133;28;19924;-79
2023/04/19 12:19:51;;;;;;;;;;;20.30;61.80;;;;;;5031563;28;19927;-80
2023/04/19 12:22:19;;;;;;;;;;;20.40;61.60;;;;;;5047618;28;19925;-80
2023/04/19 12:24:44;;;;;;;;;;;20.50;61.50;;;;;;5030342;28;20012;-80
2023/04/19 12:27:10;;;;;;;;;;;20.60;61.40;;;;;;5042292;28;20489;-78
2023/04/19 12:29:35;;;;;;;;;;;20.80;61.10;;;;;;5041995;28;19928;-80
2023/04/19 12:32:01;;;;;;;;;;;20.80;60.80;;;;;;5031931;28;19978;-79
2023/04/19 12:34:27;;;;;;;;;;;20.90;60.90;;;;;;5044437;28;19928;-77
2023/04/19 12:36:52;;;;;;;;;;;21.00;60.90;;;;;;5041996;28;20047;-81
2023/04/19 12:39:18;;;;;;;;;;;21.10;60.80;;;;;;5034302;28;19939;-78
2023/04/19 12:41:43;;;;;;;;;;;21.30;60.60;;;;;;5033810;28;20012;-78
2023/04/19 12:44:09;;;;;;;;;;;21.40;60.60;;;;;;5032184;28;19931;-80
2023/04/19 12:46:35;;;;;;;;;;;21.50;60.20;;;;;;5027677;28;19921;-77
2023/04/19 12:49:00;;;;;;;;;;;21.50;60.00;;;;;;5031603;28;19924;-77
2023/04/19 12:51:26;;;;;;;;;;;21.40;59.90;;;;;;5034387;28;19987;-77
2023/04/19 12:53:52;;;;;;;;;;;21.30;60.00;;;;;;5027152;28;19948;-76
2023/04/19 12:56:18;;;;;;;;;;;21.30;60.40;;;;;;5046799;28;20315;-80
2023/04/19 12:58:43;;;;;;;;;;;21.30;60.30;;;;;;5027408;28;19921;-79
2023/04/19 13:01:09;;;;;;;;;;;21.30;59.80;;;;;;5031606;28;20728;-80
2023/04/19 13:03:35;;;;;;;;;;;21.20;59.90;;;;;;5043070;28;19921;-77
2023/04/19 13:06:01;;;;;;;;;;;21.20;60.00;;;;;;5031056;28;20315;-78
2023/04/19 13:08:26;;;;;;;;;;;21.30;60.10;;;;;;5030384;28;19921;-77
2023/04/19 13:10:52;;;;;;;;;;;21.40;60.10;;;;;;5030898;28;19955;-77
2023/04/19 13:13:17;;;;;;;;;;;21.40;59.90;;;;;;5032120;28;20007;-77
2023/04/19 13:15:44;;;;;;;;;;;21.50;60.00;;;;;;5030423;28;19951;-77
2023/04/19 13:18:09;;;;;;;;;;;21.60;59.80;;;;;;5031342;28;19925;-79
2023/04/19 13:20:35;;;;;;;;;;;21.60;59.60;;;;;;5043608;28;19921;-76
2023/04/19 13:23:00;;;;;;;;;;;21.70;59.50;;;;;;5032217;28;19969;-79
2023/04/19 13:25:26;;;;;;;;;;;21.70;59.50;;;;;;5031647;28;19924;-79
2023/04/19 13:27:51;;;;;;;;;;;21.80;59.50;;;;;;5020040;28;19920;-75
2023/04/19 13:30:17;;;;;;;;;;;22.00;59.50;;;;;;5026177;28;20003;-77
2023/04/19 13:32:42;;;;;;;;;;;22.10;59.40;;;;;;5024918;28;20030;-77
2023/04/19 13:35:08;;;;;;;;;;;22.10;59.30;;;;;;5026444;28;19966;-77
2023/04/19 13:37:33;;;;;;;;;;;22.20;59.30;;;;;;5032827;28;19925;-77
2023/04/19 13:39:59;;;;;;;;;;;22.30;59.10;;;;;;5029175;28;19929;-76
2023/04/19 13:42:24;;;;;;;;;;;22.30;58.90;;;;;;5032017;28;20036;-78
2023/04/19 13:44:50;;;;;;;;;;;22.20;59.00;;;;;;5040914;28;20419;-75
2023/04/19 13:47:15;;;;;;;;;;;22.30;59.10;;;;;;5033127;28;19921;-76
2023/04/19 13:49:41;;;;;;;;;;;22.30;58.90;;;;;;5041714;28;19921;-78
2023/04/19 13:52:06;;;;;;;;;;;22.30;58.80;;;;;;5031569;28;20295;-76
2023/04/19 13:54:32;;;;;;;;;;;22.30;58.70;;;;;;5030089;28;20016;-77
2023/04/19 13:56:57;;;;;;;;;;;22.30;58.90;;;;;;5029580;28;19929;-77
2023/04/19 13:59:24;;;;;;;;;;;22.40;59.00;;;;;;5027851;28;20379;-76
2023/04/19 14:01:50;;;;;;;;;;;22.50;58.60;;;;;;5046163;28;19921;-76
2023/04/19 14:04:16;;;;;;;;;;;22.40;58.70;;;;;;5032113;28;19917;-78
2023/04/19 14:06:41;;;;;;;;;;;22.40;58.60;;;;;;5046279;28;20318;-76
2023/04/19 14:09:07;;;;;;;;;;;22.30;58.50;;;;;;5028526;28;20438;-74
2023/04/19 14:11:32;;;;;;;;;;;22.30;58.70;;;;;;5031741;28;20015;-75
2023/04/19 14:13:58;;;;;;;;;;;22.30;58.80;;;;;;5025843;28;19925;-78